createdAt,value
2023-05-22T00:00:41.786Z,56.12
2023-05-22T00:04:04.251Z,55.58
2023-05-22T00:07:17.160Z,54.97
2023-05-22T00:10:37.380Z,54.61
2023-05-22T00:13:52.169Z,55.05
2023-05-22T00:17:18.964Z,55.09
2023-05-22T00:20:43.484Z,55.21
2023-05-22T00:24:42.232Z,54.68
2023-05-22T00:28:28.445Z,55.20
2023-05-22T00:32:03.288Z,55.37
2023-05-22T00:35:23.631Z,55.45
2023-05-22T00:38:38.515Z,55.00
2023-05-22T00:42:04.270Z,55.14
2023-05-22T00:45:19.540Z,54.43
2023-05-22T00:48:31.555Z,54.07
2023-05-22T00:51:38.264Z,55.39
2023-05-22T00:54:47.268Z,55.39
2023-05-22T00:58:01.620Z,55.50
2023-05-22T01:01:11.857Z,55.31
2023-05-22T01:04:31.756Z,54.86
2023-05-22T01:07:50.228Z,55.86
2023-05-22T01:11:12.626Z,55.62
2023-05-22T01:14:45.286Z,56.54
2023-05-22T01:18:07.243Z,56.09
2023-05-22T01:21:23.393Z,55.63
2023-05-22T01:24:53.814Z,55.49
2023-05-22T01:28:10.918Z,55.33
2023-05-22T01:31:32.634Z,55.82
2023-05-22T01:34:41.631Z,55.45
2023-05-22T01:38:02.112Z,55.39
2023-05-22T01:41:18.069Z,57.15
2023-05-22T01:44:33.460Z,57.49
2023-05-22T01:47:46.569Z,58.55
2023-05-22T01:51:01.411Z,58.60
2023-05-22T01:54:14.771Z,58.30
2023-05-22T01:57:58.027Z,57.42
2023-05-22T02:01:06.132Z,57.35
2023-05-22T02:04:22.287Z,56.15
2023-05-22T02:08:56.842Z,55.59
2023-05-22T02:12:31.624Z,55.74
2023-05-22T02:15:49.396Z,56.22
2023-05-22T02:19:22.618Z,56.41
2023-05-22T02:22:53.839Z,55.30
2023-05-22T02:26:10.290Z,55.25
2023-05-22T02:30:40.566Z,55.11
2023-05-22T02:33:46.490Z,55.52
2023-05-22T02:36:54.073Z,55.14
2023-05-22T02:41:15.045Z,54.48
2023-05-22T02:44:51.353Z,54.42
2023-05-22T02:48:12.065Z,55.43
2023-05-22T02:51:19.296Z,56.05
2023-05-22T02:54:28.324Z,56.19
2023-05-22T03:02:20.766Z,55.97
2023-05-22T03:05:36.594Z,56.63
2023-05-22T03:08:54.739Z,56.77
2023-05-22T03:12:12.166Z,55.73
2023-05-22T03:15:40.815Z,56.65
2023-05-22T03:19:09.665Z,55.97
2023-05-22T03:22:14.330Z,56.85
2023-05-22T03:25:25.194Z,57.61
2023-05-22T03:28:41.456Z,56.60
2023-05-22T03:31:50.285Z,56.08
2023-05-22T03:34:59.768Z,56.03
2023-05-22T03:38:06.529Z,56.47
2023-05-22T03:41:18.015Z,57.27
2023-05-22T03:45:16.526Z,56.18
2023-05-22T03:48:25.683Z,56.60
2023-05-22T03:51:35.894Z,56.33
2023-05-22T03:54:40.008Z,56.52
2023-05-22T03:57:44.739Z,56.32
2023-05-22T04:00:58.807Z,56.81
2023-05-22T04:04:05.703Z,56.90
2023-05-22T04:07:31.836Z,57.25
2023-05-22T04:10:46.883Z,56.41
2023-05-22T04:14:02.172Z,56.07
2023-05-22T04:17:13.205Z,55.56
2023-05-22T04:20:24.159Z,55.60
2023-05-22T04:23:36.404Z,55.09
2023-05-22T04:27:44.170Z,54.89
2023-05-22T04:31:00.845Z,54.39
2023-05-22T04:34:19.313Z,53.81
2023-05-22T04:37:26.586Z,52.30
2023-05-22T04:40:53.965Z,51.48
2023-05-22T04:44:35.354Z,50.40
2023-05-22T04:47:57.314Z,50.21
2023-05-22T04:51:24.051Z,49.09
2023-05-22T04:54:38.536Z,49.28
2023-05-22T04:57:55.805Z,49.97
2023-05-22T05:01:41.587Z,50.22
2023-05-22T05:05:10.814Z,49.50
2023-05-22T05:08:39.075Z,48.99
2023-05-22T05:12:03.875Z,47.77
2023-05-22T05:15:56.894Z,47.27
2023-05-22T05:22:57.912Z,46.05
2023-05-22T05:26:22.260Z,46.99
2023-05-22T05:29:51.981Z,45.85
2023-05-22T05:33:08.593Z,45.52
2023-05-22T05:36:25.410Z,45.97
2023-05-22T05:39:32.089Z,45.61
2023-05-22T05:42:40.389Z,45.45
2023-05-22T05:45:50.653Z,46.01
2023-05-22T05:48:55.074Z,45.66
2023-05-22T05:52:03.051Z,45.51
2023-05-22T05:55:12.705Z,45.77
2023-05-22T05:58:18.318Z,45.57
2023-05-22T06:01:35.836Z,45.76
2023-05-22T06:04:42.684Z,46.39
2023-05-22T06:07:49.808Z,46.12
2023-05-22T06:10:53.700Z,46.05
2023-05-22T06:14:13.858Z,46.01
2023-05-22T06:17:17.600Z,44.45
2023-05-22T06:20:25.148Z,44.77
2023-05-22T06:23:30.158Z,44.09
2023-05-22T06:26:34.317Z,44.61
2023-05-22T06:29:39.608Z,43.11
2023-05-22T06:32:45.029Z,42.91
2023-05-22T06:35:49.097Z,42.95
2023-05-22T06:38:55.716Z,39.65
2023-05-22T06:42:28.708Z,37.93
2023-05-22T06:46:05.690Z,36.59
2023-05-22T06:49:29.522Z,37.30
2023-05-22T06:52:35.501Z,37.54
2023-05-22T06:55:47.994Z,37.73
2023-05-22T06:59:01.248Z,37.74
2023-05-22T07:02:27.966Z,37.87
2023-05-22T07:05:51.536Z,36.73
2023-05-22T07:08:55.473Z,38.46
2023-05-22T07:12:01.520Z,37.48
2023-05-22T07:15:11.878Z,36.32
2023-05-22T07:18:17.319Z,35.67
2023-05-22T07:21:24.740Z,34.63
2023-05-22T07:24:35.128Z,34.09
2023-05-22T07:27:45.680Z,32.98
2023-05-22T07:32:16.037Z,34.56
2023-05-22T07:35:52.054Z,35.45
2023-05-22T07:39:47.970Z,36.39
2023-05-22T07:42:59.255Z,39.34
2023-05-22T07:46:04.024Z,38.57
2023-05-22T07:49:19.975Z,40.90
2023-05-22T07:52:44.147Z,42.15
2023-05-22T08:01:35.688Z,41.98
2023-05-22T08:04:44.955Z,41.71
2023-05-22T08:07:48.620Z,42.41
2023-05-22T08:14:05.922Z,40.76
2023-05-22T08:17:11.299Z,39.55
2023-05-22T08:20:15.278Z,41.50
2023-05-22T08:23:19.558Z,40.80
2023-05-22T08:26:23.243Z,41.71
2023-05-22T08:29:27.251Z,41.54
2023-05-22T08:32:32.521Z,42.92
2023-05-22T08:35:36.406Z,43.57
2023-05-22T08:38:40.055Z,43.93
2023-05-22T08:41:44.446Z,43.13
2023-05-22T08:44:50.256Z,42.45
2023-05-22T08:47:58.894Z,43.43
2023-05-22T08:51:09.826Z,43.24
2023-05-22T08:54:18.738Z,43.34
2023-05-22T08:57:23.274Z,44.28
2023-05-22T09:00:27.175Z,44.30
2023-05-22T09:03:34.377Z,42.99
2023-05-22T09:06:41.606Z,42.61
2023-05-22T09:09:45.301Z,42.65
2023-05-22T09:13:01.989Z,43.33
2023-05-22T09:16:09.942Z,42.46
2023-05-22T09:19:16.259Z,42.12
2023-05-22T09:22:20.453Z,43.15
2023-05-22T09:25:27.767Z,42.60
2023-05-22T09:28:37.687Z,44.11
2023-05-22T09:31:45.805Z,42.93
2023-05-22T09:34:54.207Z,42.78
2023-05-22T09:38:06.622Z,41.68
2023-05-22T09:41:28.355Z,42.06
2023-05-22T09:44:50.263Z,42.21
2023-05-22T09:47:54.814Z,42.23
2023-05-22T09:51:13.908Z,42.89
2023-05-22T09:54:21.689Z,43.04
2023-05-22T09:57:27.510Z,41.36
2023-05-22T10:00:34.833Z,41.21
2023-05-22T10:03:42.211Z,40.09
2023-05-22T10:06:51.443Z,41.73
2023-05-22T10:10:03.470Z,41.93
2023-05-22T10:13:07.429Z,41.63
2023-05-22T10:16:12.440Z,39.89
2023-05-22T10:19:16.522Z,40.91
2023-05-22T10:22:22.814Z,40.04
2023-05-22T10:25:27.289Z,39.70
2023-05-22T10:28:37.037Z,39.78
2023-05-22T10:31:51.881Z,40.26
2023-05-22T10:35:19.957Z,39.75
2023-05-22T10:38:54.665Z,41.03
2023-05-22T10:42:00.162Z,40.22
2023-05-22T10:45:08.102Z,39.32
2023-05-22T10:48:13.684Z,40.62
2023-05-22T10:51:21.981Z,39.20
2023-05-22T10:54:43.523Z,38.27
2023-05-22T10:57:48.199Z,39.54
2023-05-22T11:01:16.715Z,38.55
2023-05-22T11:04:31.860Z,39.74
2023-05-22T11:07:41.858Z,36.23
2023-05-22T11:11:02.551Z,37.55
2023-05-22T11:14:18.300Z,38.97
2023-05-22T11:17:33.707Z,38.18
2023-05-22T11:20:44.449Z,38.07
2023-05-22T11:27:43.713Z,39.32
2023-05-22T11:30:51.080Z,40.29
2023-05-22T11:34:19.240Z,39.67
2023-05-22T11:37:58.062Z,39.16
2023-05-22T11:41:02.678Z,40.82
2023-05-22T11:44:11.286Z,39.15
2023-05-22T11:47:15.812Z,38.01
2023-05-22T11:50:41.085Z,38.38
2023-05-22T11:53:50.321Z,38.84
2023-05-22T11:56:54.810Z,38.35
2023-05-22T12:00:00.908Z,39.27
2023-05-22T12:03:11.199Z,38.76
2023-05-22T12:06:18.776Z,39.35
2023-05-22T12:09:25.666Z,37.99
2023-05-22T12:12:33.055Z,37.83
2023-05-22T12:15:43.502Z,37.77
2023-05-22T12:18:56.070Z,37.73
2023-05-22T12:22:12.574Z,36.08
2023-05-22T12:25:20.680Z,36.42
2023-05-22T12:28:24.998Z,37.61
2023-05-22T12:31:36.292Z,37.98
2023-05-22T12:34:45.592Z,37.48
2023-05-22T12:37:53.173Z,37.46
2023-05-22T12:40:57.830Z,37.53
2023-05-22T12:44:04.555Z,38.06
2023-05-22T12:47:11.810Z,37.58
2023-05-22T12:50:16.948Z,37.26
2023-05-22T12:54:11.801Z,36.76
2023-05-22T12:57:16.897Z,37.47
2023-05-22T13:00:21.478Z,37.44
2023-05-22T13:03:53.161Z,38.63
2023-05-22T13:07:00.277Z,39.08
2023-05-22T13:10:21.302Z,38.22
2023-05-22T13:13:33.196Z,37.67
2023-05-22T13:16:41.327Z,37.33
2023-05-22T13:19:54.527Z,37.33
2023-05-22T13:23:03.426Z,37.18
2023-05-22T13:26:17.531Z,37.75
2023-05-22T13:29:35.073Z,36.83
2023-05-22T13:32:51.522Z,37.73
2023-05-22T13:36:04.893Z,38.58
2023-05-22T13:39:08.565Z,39.01
2023-05-22T13:43:19.500Z,38.96
2023-05-22T13:46:38.639Z,39.30
2023-05-22T13:49:49.361Z,38.88
2023-05-22T13:52:55.430Z,39.66
2023-05-22T13:56:00.378Z,38.44
2023-05-22T13:59:09.432Z,38.40
2023-05-22T14:02:20.593Z,37.68
2023-05-22T14:08:50.648Z,37.74
2023-05-22T14:11:58.775Z,38.32
2023-05-22T14:15:09.535Z,38.41
2023-05-22T14:18:31.892Z,37.15
2023-05-22T14:21:51.180Z,37.07
2023-05-22T14:25:44.282Z,36.92
2023-05-22T14:29:04.526Z,35.76
2023-05-22T14:32:57.402Z,36.16
2023-05-22T14:37:00.683Z,36.99
2023-05-22T14:40:19.177Z,37.44
2023-05-22T14:43:22.629Z,36.52
2023-05-22T14:46:28.251Z,36.87
2023-05-22T14:49:32.686Z,37.53
2023-05-22T14:52:36.885Z,35.87
2023-05-22T14:55:44.724Z,36.33
2023-05-22T14:58:51.445Z,36.05
2023-05-22T15:02:02.548Z,35.92
2023-05-22T15:05:13.169Z,36.51
2023-05-22T15:08:25.838Z,35.51
2023-05-22T15:11:35.297Z,35.62
2023-05-22T15:14:38.944Z,36.30
2023-05-22T15:17:44.433Z,35.75
2023-05-22T15:20:49.084Z,36.66
2023-05-22T15:24:00.813Z,39.84
2023-05-22T15:27:13.515Z,39.47
2023-05-22T15:30:23.958Z,40.11
2023-05-22T15:33:35.004Z,40.71
2023-05-22T15:36:41.371Z,41.03
2023-05-22T15:40:14.813Z,40.63
2023-05-22T15:43:51.183Z,40.45
2023-05-22T15:47:17.560Z,40.72
2023-05-22T15:50:40.398Z,40.69
2023-05-22T15:53:55.711Z,40.98
2023-05-22T15:57:06.933Z,41.16
2023-05-22T16:00:19.582Z,41.51
2023-05-22T16:03:48.300Z,41.56
2023-05-22T16:06:58.896Z,41.81
2023-05-22T16:10:12.552Z,42.41
2023-05-22T16:13:21.773Z,41.84
2023-05-22T16:16:25.308Z,41.75
2023-05-22T16:19:31.866Z,42.43
2023-05-22T16:22:47.970Z,41.84
2023-05-22T16:27:10.135Z,41.84
2023-05-22T16:30:16.936Z,41.90
2023-05-22T16:33:21.155Z,42.16
2023-05-22T16:36:27.211Z,41.86
2023-05-22T16:39:33.099Z,43.21
2023-05-22T16:42:38.853Z,42.83
2023-05-22T16:45:46.630Z,42.70
2023-05-22T16:48:50.805Z,42.34
2023-05-22T16:51:54.575Z,42.39
2023-05-22T16:55:01.446Z,42.68
2023-05-22T16:58:09.277Z,42.99
2023-05-22T17:01:13.653Z,43.76
2023-05-22T17:04:19.423Z,44.63
2023-05-22T17:07:23.597Z,44.26
2023-05-22T17:10:29.825Z,43.92
2023-05-22T17:13:36.170Z,44.06
2023-05-22T17:16:40.923Z,43.66
2023-05-22T17:19:45.422Z,44.26
2023-05-22T17:22:56.194Z,44.43
2023-05-22T17:26:21.225Z,44.07
2023-05-22T17:29:28.222Z,44.58
2023-05-22T17:32:37.518Z,44.09
2023-05-22T17:35:43.021Z,44.15
2023-05-22T17:38:46.938Z,44.30
2023-05-22T17:41:54.798Z,44.00
2023-05-22T17:44:58.952Z,44.71
2023-05-22T17:48:02.541Z,44.57
2023-05-22T17:51:06.724Z,45.46
2023-05-22T17:54:13.153Z,45.79
2023-05-22T17:57:19.782Z,46.43
2023-05-22T18:00:23.487Z,46.59
2023-05-22T18:03:28.556Z,46.91
2023-05-22T18:06:33.030Z,48.49
2023-05-22T18:09:37.436Z,48.40
2023-05-22T18:12:42.580Z,49.38
2023-05-22T18:15:46.437Z,49.21
2023-05-22T18:18:50.229Z,50.68
2023-05-22T18:21:56.525Z,50.51
2023-05-22T18:25:00.887Z,50.13
2023-05-22T18:28:08.639Z,50.15
2023-05-22T18:31:12.488Z,50.31
2023-05-22T18:34:21.274Z,50.33
2023-05-22T18:37:28.232Z,51.30
2023-05-22T18:40:37.953Z,51.27
2023-05-22T18:43:43.485Z,51.24
2023-05-22T18:46:48.352Z,50.88
2023-05-22T18:49:52.748Z,51.51
2023-05-22T18:52:56.774Z,51.56
2023-05-22T18:56:00.253Z,51.36
2023-05-22T18:59:13.550Z,51.67
2023-05-22T19:02:22.105Z,52.05
2023-05-22T19:05:30.830Z,51.89
2023-05-22T19:08:37.388Z,52.04
2023-05-22T19:11:42.833Z,52.82
2023-05-22T19:14:49.936Z,52.71
2023-05-22T19:17:58.120Z,52.36
2023-05-22T19:24:30.264Z,52.41
2023-05-22T19:28:02.549Z,52.82
2023-05-22T19:31:31.826Z,53.54
2023-05-22T19:34:55.029Z,52.69
2023-05-22T19:39:16.193Z,52.66
2023-05-22T19:42:29.252Z,53.42
2023-05-22T19:45:35.995Z,54.38
2023-05-22T19:49:05.371Z,54.53
2023-05-22T19:52:13.745Z,54.71
2023-05-22T19:55:18.786Z,54.20
2023-05-22T19:58:25.370Z,53.86
2023-05-22T20:01:30.504Z,53.55
2023-05-22T20:04:36.019Z,53.33
2023-05-22T20:07:44.972Z,53.15
2023-05-22T20:10:59.634Z,52.90
2023-05-22T20:14:12.620Z,53.89
2023-05-22T20:17:32.224Z,53.70
2023-05-22T20:21:19.979Z,53.85
2023-05-22T20:25:43.635Z,53.89
2023-05-22T20:29:00.138Z,53.53
2023-05-22T20:32:16.320Z,53.63
2023-05-22T20:35:39.310Z,53.85
2023-05-22T20:39:04.050Z,53.36
2023-05-22T20:42:16.871Z,53.88
2023-05-22T20:46:12.685Z,53.29
2023-05-22T20:49:23.712Z,54.47
2023-05-22T20:52:38.630Z,54.75
2023-05-22T20:55:53.716Z,54.01
2023-05-22T20:59:00.033Z,54.20
2023-05-22T21:02:21.135Z,54.22
2023-05-22T21:05:39.307Z,54.27
2023-05-22T21:09:44.074Z,54.08
2023-05-22T21:13:05.763Z,54.77
2023-05-22T21:16:18.727Z,55.03
2023-05-22T21:19:37.804Z,55.14
2023-05-22T21:22:47.926Z,54.89
2023-05-22T21:25:56.521Z,54.54
2023-05-22T21:29:04.512Z,54.90
2023-05-22T21:32:19.126Z,54.54
2023-05-22T21:35:26.056Z,55.40
2023-05-22T21:38:37.941Z,55.96
2023-05-22T21:41:43.873Z,56.62
2023-05-22T21:44:53.204Z,56.11
2023-05-22T21:48:00.444Z,56.63
2023-05-22T21:51:11.200Z,56.00
2023-05-22T21:54:26.895Z,54.96
2023-05-22T21:57:36.817Z,54.55
2023-05-22T22:00:43.998Z,55.05
2023-05-22T22:03:48.566Z,55.50
2023-05-22T22:06:53.844Z,55.57
2023-05-22T22:09:59.277Z,55.06
2023-05-22T22:13:04.184Z,55.05
2023-05-22T22:16:25.428Z,54.98
2023-05-22T22:19:41.418Z,54.86
2023-05-22T22:22:52.711Z,55.60
2023-05-22T22:26:07.404Z,55.31
2023-05-22T22:29:23.364Z,54.58
2023-05-22T22:32:37.784Z,54.90
2023-05-22T22:35:59.111Z,55.36
2023-05-22T22:39:19.089Z,55.67
2023-05-22T22:42:29.873Z,54.96
2023-05-22T22:46:53.295Z,54.47
2023-05-22T22:50:11.482Z,54.93
2023-05-22T22:53:16.416Z,54.90
2023-05-22T22:56:24.335Z,54.62
2023-05-22T22:59:29.584Z,54.59
2023-05-22T23:02:36.661Z,53.88
2023-05-22T23:05:45.217Z,53.88
2023-05-22T23:08:50.931Z,54.16
2023-05-22T23:11:59.891Z,53.91
2023-05-22T23:15:15.881Z,53.87
2023-05-22T23:18:19.778Z,53.98
2023-05-22T23:21:26.710Z,54.85
2023-05-22T23:24:33.150Z,54.27
2023-05-22T23:27:48.180Z,54.22
2023-05-22T23:31:10.724Z,54.15
2023-05-22T23:34:36.105Z,53.60
2023-05-22T23:37:53.872Z,53.77
2023-05-22T23:41:32.332Z,54.75
2023-05-22T23:44:54.576Z,55.17
2023-05-22T23:48:19.558Z,55.17
2023-05-22T23:51:45.505Z,54.95
2023-05-22T23:55:22.488Z,54.99
2023-05-22T23:58:51.341Z,55.10
